»·PEaware :: N3051E KSNA-KBUR

N3051E :: KSNA-KBUR

FLIGHT INFORMATION

Flight Status: Arrived
Operator: Privately registered:
United States
More flights under this callsign
Pilot: Michael C. (32857)
Aircraft: CESSNA 172 SKYHAWK
(C172)
More flights by this aircraft type
Origin: KSNA John Wayne-Orange Co
United States
Destination: KBUR Bob Hope-Burbank
United States
More flights between these airports :: More routes between these airports
Route: H220 SLI SLI341 ELMOO V186 VNY
File this flight plan on PilotEdge
Remarks:
Altitude:
(Current/Filed)
4,000ft
Speed:
(Current/Filed)
105kts
Departed: 29-Dec-21 02:50 PM
Arrived: 29-Dec-21 03:38 PM
Distance/Time
Traveled:
40nm/0:48
Distance/Time
To Go:
Arrived

Flight Plot

Page will automatically refresh every two minutes.

Flight plan parsing failed; only flown route is shown


Map Options




Map Legend


Flown Route
Filed Route
Departure Airport
Arrival Airport
Navaid (VOR, NDB)
Fix

Horizontal Profiles

Position Reports

Time Latitude Longitude Heading Altitude Ground
Speed
29-Dec-21 14:29 33.674594 -117.872117 120 60ft 0kts
29-Dec-21 14:30 33.674594 -117.872117 120 60ft 0kts
29-Dec-21 14:31 33.674594 -117.872117 120 60ft 0kts
29-Dec-21 14:32 33.674594 -117.872117 120 60ft 0kts
29-Dec-21 14:33 33.674594 -117.872117 120 60ft 0kts
29-Dec-21 14:34 33.674594 -117.872117 120 60ft 0kts
29-Dec-21 14:35 33.674594 -117.872117 120 60ft 0kts
29-Dec-21 14:36 33.674594 -117.872117 120 60ft 0kts
29-Dec-21 14:37 33.674594 -117.872117 120 60ft 0kts
29-Dec-21 14:38 33.674582 -117.872094 120 60ft 0kts
29-Dec-21 14:39 33.674582 -117.872094 120 60ft 0kts
29-Dec-21 14:40 33.674582 -117.872094 120 60ft 0kts
29-Dec-21 14:41 33.674582 -117.872094 120 60ft 0kts
29-Dec-21 14:42 33.674582 -117.872094 120 60ft 0kts
29-Dec-21 14:43 33.674582 -117.872094 120 60ft 0kts
29-Dec-21 14:44 33.674582 -117.872094 120 60ft 0kts
29-Dec-21 14:45 33.676123 -117.870514 31 60ft 19kts
29-Dec-21 14:46 33.678975 -117.868476 44 60ft 6kts
29-Dec-21 14:47 33.681279 -117.866715 85 60ft 3kts
29-Dec-21 14:48 33.681253 -117.866536 111 60ft 0kts
29-Dec-21 14:48 33.680561 -117.865765 193 60ft 10kts
29-Dec-21 14:50 33.664219 -117.881519 230 900ft 79kts
29-Dec-21 14:51 33.651883 -117.903209 230 1887ft 79kts
29-Dec-21 14:52 33.635637 -117.932674 232 2049ft 119kts
29-Dec-21 14:52 33.620332 -117.960291 231 2395ft 106kts
29-Dec-21 14:53 33.604662 -117.988755 230 3299ft 93kts
29-Dec-21 14:54 33.604184 -118.017062 315 4171ft 99kts
29-Dec-21 14:56 33.631932 -118.034761 358 5082ft 100kts
29-Dec-21 14:56 33.655528 -118.035680 7 5661ft 105kts
29-Dec-21 14:57 33.686581 -118.038455 343 6108ft 126kts
29-Dec-21 14:58 33.720186 -118.054842 351 6232ft 144kts
29-Dec-21 15:00 33.768210 -118.058125 10 6001ft 145kts
29-Dec-21 15:00 33.799585 -118.056906 359 6002ft 128kts
29-Dec-21 15:01 33.834731 -118.059110 355 6005ft 125kts
29-Dec-21 15:02 33.869480 -118.062021 354 6008ft 127kts
29-Dec-21 15:03 33.905098 -118.064467 355 6020ft 128kts
29-Dec-21 15:04 33.940941 -118.065057 351 6118ft 133kts
29-Dec-21 15:05 33.978593 -118.070753 355 6077ft 135kts
29-Dec-21 15:06 34.015090 -118.073525 354 6066ft 132kts
29-Dec-21 15:07 34.051200 -118.077707 356 6085ft 129kts
29-Dec-21 15:08 34.087054 -118.080112 355 6077ft 129kts
29-Dec-21 15:09 34.108003 -118.111250 288 6090ft 126kts
29-Dec-21 15:10 34.120609 -118.150404 282 6100ft 126kts
29-Dec-21 15:11 34.132195 -118.190486 283 6064ft 125kts
29-Dec-21 15:12 34.142831 -118.230212 269 6024ft 121kts
29-Dec-21 15:13 34.148359 -118.270085 272 6056ft 118kts
29-Dec-21 15:14 34.154883 -118.308753 272 6080ft 117kts
29-Dec-21 15:15 34.159482 -118.347784 262 6037ft 116kts
29-Dec-21 15:16 34.159623 -118.387339 260 5820ft 129kts
29-Dec-21 15:17 34.159000 -118.433289 263 4747ft 130kts
29-Dec-21 15:18 34.158131 -118.476482 261 4067ft 125kts
29-Dec-21 15:19 34.156452 -118.516015 261 4027ft 114kts
29-Dec-21 15:20 34.156093 -118.554893 262 4093ft 116kts
29-Dec-21 15:21 34.154980 -118.594396 261 4109ft 118kts
29-Dec-21 15:22 34.153412 -118.635140 262 4068ft 122kts
29-Dec-21 15:23 34.151113 -118.676435 262 4025ft 123kts
29-Dec-21 15:24 34.164099 -118.705243 35 3894ft 107kts
29-Dec-21 15:25 34.178715 -118.679734 62 4324ft 97kts
29-Dec-21 15:26 34.193978 -118.654296 68 4085ft 88kts
29-Dec-21 15:27 34.200932 -118.627045 90 4030ft 83kts
29-Dec-21 15:28 34.200969 -118.598542 98 4069ft 85kts
29-Dec-21 15:29 34.200619 -118.569450 98 4055ft 85kts
29-Dec-21 15:30 34.200111 -118.539289 96 3598ft 92kts
29-Dec-21 15:31 34.199618 -118.507426 90 3001ft 97kts
29-Dec-21 15:32 34.199277 -118.476034 93 2527ft 92kts
29-Dec-21 15:33 34.199110 -118.444761 96 2004ft 89kts
29-Dec-21 15:34 34.198574 -118.415469 96 1513ft 85kts
29-Dec-21 15:35 34.198088 -118.387429 95 1133ft 65kts
29-Dec-21 15:36 34.197900 -118.367750 97 735ft 44kts
29-Dec-21 15:37 34.198600 -118.360238 4 717ft 0kts
29-Dec-21 15:38 34.199412 -118.360159 0 720ft 4kts

Navigation Log

Ident Type
Flight plan parsing failed, navigation log unavailable